Relevés horaires Matro (Suisse)


Relevés horaires à Matro - Mardi 18 Août 2026
Heure UTC1 Température [°C] Vent [km/h] Hum. [%] Pres.4 [hPa] Visi. [Km] Nébu. [octa] Préc.5 [mm] Cond.
2m. Res. Ros. Dir.2 Vit. Moy. Raf.3
23:00 13.8 13 5.3 NO 11.1 -- 18.5 56 850 -- -- -- --
22:00 13.9 13.9 5.4 O 5.6 -- 11.1 56 850(0.4/3h) -- -- -- --
21:00 14.1 14.1 5.5 NNO 5.6 -- 37.0 56 850(0.8/3h) -- -- -- --
20:00 14.3 13.1 5.4 NNO 16.7 -- 25.9 55 850 -- -- -- --
19:00 14.7 13.3 5.0 NO 20.4 -- 37.0 52 850 -- -- -- --
18:00 14.8 13 4.9 NO 27.8 -- 40.7 51 850 -- -- -- --
17:00 15.2 13.7 5.2 NO 24.1 -- 37.0 51 850 -- -- -- --
16:00 15.1 14.6 5.9 NNO 11.1 -- 38.9 54 850 -- -- -- --
15:00 16.3 15.4 6.0 OSO 18.5 -- 40.7 50 850 -- -- -- --
14:00 16.5 15.8 7.4 OSO 16.7 -- 35.2 55 850(-0.5/3h) -- -- -- --
13:00 14.8 14 6.3 O 13.0 -- 31.5 57 850(-0.2/3h) -- -- -- --
12:00 15.0 14.7 7.5 OSO 9.3 -- 33.3 61 850(0.1/3h) -- -- -- --
11:00 12.7 12 6.0 O 9.3 -- 29.6 64 850(0.4/3h) -- -- -- --
10:00 12.0 11.5 5.8 ONO 7.4 -- 25.9 66 850 -- -- -- --
09:00 11.6 11 6.0 ONO 7.4 -- 33.3 68 850 -- -- -- --
08:00 10.9 8.7 5.2 NO 18.5 -- 33.3 68 850 -- -- -- --
07:00 10.8 8.5 4.3 ONO 18.5 -- 33.3 64 850(0.8/3h) -- -- -- --
06:00 10.9 8.5 3.6 ONO 20.4 -- 50.0 61 850(0.4/3h) -- -- -- --
05:00 11.0 7.8 2.8 NO 31.5 -- 44.4 57 850 -- -- -- --
04:00 10.8 7.4 3.1 NO 33.3 -- 50.0 59 850(-0.3/3h) -- -- -- --
03:00 10.9 7.5 4.3 NO 33.3 -- 42.6 64 850(-0.5/3h) -- -- -- --
02:00 11.0 8 3.8 NO 27.8 -- 35.2 61 850(-0.3/3h) -- -- -- --
01:00 11.1 8.4 3.5 NO 24.1 -- 33.3 59 850(-0.3/3h) -- -- -- --
00:00 10.9 8.3 3.5 NO 22.2 -- 48.2 60 850(-0.1/3h) -- -- -- --

1 Coordinated Universal Time. Actuellement il est 08:00 locale et 06:00 UTC.

2 Le vent souffle depuis la direction indiquée vers la direction oposée.

3 Les rafales max. sont disponible 40 min après l'heure du relevé.

4 Pour les stations d'altitude (plus de 600m) le géopotentiel du niveau le plus proche de la pression obligatoire est indiqué.

5 Les stations disposant d'un diffuseur peuvent indiquer "trace". Cela signifie que des précipitations ont touchés le sol mais que la quantité est inférieure à 0.1 mm.

Copyright

Les données affichées sur cette page sont la propriété exclusive de Météo Suisse.

Récapitulatif de la journée
Température [°C] Vent [km/h] Ensoleillement4 [h] Precipitations totale5 [mm] Pression [Hpa]
Min1 Max.2 Moy.3 Max. Min Max.
9.8 16.8 0 50.0 5 h 36 min 0 850.0 850.0

1 Température minimale relevée entre 18:00 UTC la veille et 18:00 UTC le jour donné.

2 Température maximale relevée entre 06:00 UTC le jour donné et 06:00 UTC le lendemain.

3 Vent moyen de la journée basé sur les relevés horaires.

4 Ensoleillement en heures relevé entre 06:00 UTC la veille et 06:00 UTC le jour donné.

5 Précipitations totales tombées entre 06:00 UTC la jour donné et 06:00 UTC le lendemain.

Graphiques horaires